EmailTwitter


Observations de surface / Québec / EGBB

Régions: Québec | Canada | États-Unis | Europe | France | UK | Ailleurs
Station
Affichage
Infos & localisation pour EGBB | Aide pour décoder les METARs

Observations prises le 2017-09-19 à 12H50 UTC à BIRMINGHAM AIRPO, UK (EGBB)

Etat du ciel: quelques nuages.

Température: 15.0 Celsius

Point de rosée: 7.0 Celsius

Humidité relative: 59%

Vents: Sud-ouest à 9 km/h ou 5 noeuds.

Pression au niveau moyen de la mer: 102.20 kilopascals.

Visibilité horizontale: 6.21 milles terrestres ou 9.94 kilomètres.

Observation METAR:

EGBB 191250Z 22005KT 160V270 9999 FEW032 15/07 Q1022=